Cornwall, Connecticut
Current Conditions -  °F | °C
As of 8:05 AM on Wednesday 26 Nov 2014 (Local Time) from KOXC Reporting Station
Light Snow Light Snow  
Wind Chill: 28°   Ceiling: 1500
Heat Index: 36°   Visibility: 0.75mi
Dew Point: 27°   Wind: 10mph
Humidity: 70%   Direction: 40°NE
Pressure: 30.18"   Gusts: NA
Location:  41.84°N, 73.33°W
Report Text: KOXC 261305Z 04009KT 3/4SM -SN BR BKN015 OVC035 02/M03 A3018
Loading
Personal Weather Stations






























Interactive Weather Map New forecast layout! Learn more

10-Day Weather Forecast

Advertisements
Track Severe Weather on mobile